sensor_id;sensor_type;location;lat;lon;timestamp;P1;durP1;ratioP1;P2;durP2;ratioP2
19036;SDS011;9651;49.138;8.900;2023-11-19T00:03:54;6.93;;;2.83;;
19036;SDS011;9651;49.138;8.900;2023-11-19T00:07:57;5.07;;;3.27;;
19036;SDS011;9651;49.138;8.900;2023-11-19T00:11:59;5.00;;;2.70;;
19036;SDS011;9651;49.138;8.900;2023-11-19T00:16:01;3.73;;;2.63;;
19036;SDS011;9651;49.138;8.900;2023-11-19T00:20:05;5.80;;;3.33;;
19036;SDS011;9651;49.138;8.900;2023-11-19T00:24:09;6.37;;;4.13;;
19036;SDS011;9651;49.138;8.900;2023-11-19T00:28:12;5.50;;;3.80;;
19036;SDS011;9651;49.138;8.900;2023-11-19T00:32:14;8.97;;;4.37;;
19036;SDS011;9651;49.138;8.900;2023-11-19T00:36:16;4.10;;;2.83;;
19036;SDS011;9651;49.138;8.900;2023-11-19T00:40:19;5.23;;;2.70;;
19036;SDS011;9651;49.138;8.900;2023-11-19T00:44:23;4.10;;;2.40;;
19036;SDS011;9651;49.138;8.900;2023-11-19T00:48:26;7.30;;;2.90;;
19036;SDS011;9651;49.138;8.900;2023-11-19T00:52:28;3.60;;;2.30;;
19036;SDS011;9651;49.138;8.900;2023-11-19T00:56:31;4.20;;;2.97;;
19036;SDS011;9651;49.138;8.900;2023-11-19T01:00:33;5.07;;;2.67;;
19036;SDS011;9651;49.138;8.900;2023-11-19T01:04:35;5.97;;;3.93;;
19036;SDS011;9651;49.138;8.900;2023-11-19T01:08:38;4.77;;;3.10;;
19036;SDS011;9651;49.138;8.900;2023-11-19T01:12:41;5.43;;;3.10;;
19036;SDS011;9651;49.138;8.900;2023-11-19T01:16:44;6.37;;;3.10;;
19036;SDS011;9651;49.138;8.900;2023-11-19T01:20:45;3.40;;;3.07;;
19036;SDS011;9651;49.138;8.900;2023-11-19T01:24:47;5.07;;;3.23;;
19036;SDS011;9651;49.138;8.900;2023-11-19T01:28:51;4.93;;;2.87;;
19036;SDS011;9651;49.138;8.900;2023-11-19T01:32:53;4.80;;;3.67;;
19036;SDS011;9651;49.138;8.900;2023-11-19T01:36:55;5.17;;;3.40;;
19036;SDS011;9651;49.138;8.900;2023-11-19T01:40:58;3.60;;;3.00;;
19036;SDS011;9651;49.138;8.900;2023-11-19T01:45:01;6.80;;;3.80;;
19036;SDS011;9651;49.138;8.900;2023-11-19T01:49:06;4.37;;;3.47;;
19036;SDS011;9651;49.138;8.900;2023-11-19T01:53:11;4.77;;;3.80;;
19036;SDS011;9651;49.138;8.900;2023-11-19T01:57:13;4.80;;;4.07;;
19036;SDS011;9651;49.138;8.900;2023-11-19T02:01:17;5.07;;;3.23;;
19036;SDS011;9651;49.138;8.900;2023-11-19T02:05:20;4.27;;;3.53;;
19036;SDS011;9651;49.138;8.900;2023-11-19T02:09:23;4.03;;;3.37;;
19036;SDS011;9651;49.138;8.900;2023-11-19T02:13:25;4.07;;;3.20;;
19036;SDS011;9651;49.138;8.900;2023-11-19T02:17:30;5.77;;;4.10;;
19036;SDS011;9651;49.138;8.900;2023-11-19T02:21:34;3.87;;;3.50;;
19036;SDS011;9651;49.138;8.900;2023-11-19T02:25:36;4.90;;;3.90;;
19036;SDS011;9651;49.138;8.900;2023-11-19T02:29:41;7.03;;;4.07;;
19036;SDS011;9651;49.138;8.900;2023-11-19T02:33:42;5.20;;;4.37;;
19036;SDS011;9651;49.138;8.900;2023-11-19T02:37:44;5.00;;;3.90;;
19036;SDS011;9651;49.138;8.900;2023-11-19T02:41:46;6.33;;;4.13;;
19036;SDS011;9651;49.138;8.900;2023-11-19T02:45:52;7.20;;;5.33;;
19036;SDS011;9651;49.138;8.900;2023-11-19T02:49:55;8.90;;;6.43;;
19036;SDS011;9651;49.138;8.900;2023-11-19T02:53:57;17.90;;;7.03;;
19036;SDS011;9651;49.138;8.900;2023-11-19T02:58:00;9.17;;;5.47;;
19036;SDS011;9651;49.138;8.900;2023-11-19T03:02:06;8.90;;;6.17;;
19036;SDS011;9651;49.138;8.900;2023-11-19T03:06:12;10.67;;;6.80;;
19036;SDS011;9651;49.138;8.900;2023-11-19T03:10:13;7.80;;;5.63;;
19036;SDS011;9651;49.138;8.900;2023-11-19T03:14:15;6.37;;;5.17;;
19036;SDS011;9651;49.138;8.900;2023-11-19T03:18:20;8.03;;;5.27;;
19036;SDS011;9651;49.138;8.900;2023-11-19T03:22:21;4.30;;;3.83;;
19036;SDS011;9651;49.138;8.900;2023-11-19T03:26:24;4.03;;;3.10;;
19036;SDS011;9651;49.138;8.900;2023-11-19T03:30:26;3.67;;;3.00;;
19036;SDS011;9651;49.138;8.900;2023-11-19T03:34:30;4.00;;;2.73;;
19036;SDS011;9651;49.138;8.900;2023-11-19T03:38:32;2.00;;;1.80;;
19036;SDS011;9651;49.138;8.900;2023-11-19T03:42:34;1.00;;;0.80;;
19036;SDS011;9651;49.138;8.900;2023-11-19T03:46:36;2.53;;;0.60;;
19036;SDS011;9651;49.138;8.900;2023-11-19T03:50:39;1.93;;;0.50;;
19036;SDS011;9651;49.138;8.900;2023-11-19T03:54:41;0.73;;;0.60;;
19036;SDS011;9651;49.138;8.900;2023-11-19T03:58:43;1.57;;;0.60;;
19036;SDS011;9651;49.138;8.900;2023-11-19T04:02:45;0.60;;;0.50;;
19036;SDS011;9651;49.138;8.900;2023-11-19T04:06:49;0.40;;;0.30;;
19036;SDS011;9651;49.138;8.900;2023-11-19T04:10:51;0.40;;;0.40;;
19036;SDS011;9651;49.138;8.900;2023-11-19T04:14:53;2.20;;;0.60;;
19036;SDS011;9651;49.138;8.900;2023-11-19T04:18:56;1.27;;;0.60;;
19036;SDS011;9651;49.138;8.900;2023-11-19T04:23:00;4.20;;;0.60;;
19036;SDS011;9651;49.138;8.900;2023-11-19T04:27:02;1.57;;;0.47;;
19036;SDS011;9651;49.138;8.900;2023-11-19T04:31:06;0.80;;;0.60;;
19036;SDS011;9651;49.138;8.900;2023-11-19T04:35:09;0.83;;;0.70;;
19036;SDS011;9651;49.138;8.900;2023-11-19T04:39:12;1.10;;;1.00;;
19036;SDS011;9651;49.138;8.900;2023-11-19T04:43:15;0.67;;;0.50;;
19036;SDS011;9651;49.138;8.900;2023-11-19T04:47:17;0.77;;;0.63;;
19036;SDS011;9651;49.138;8.900;2023-11-19T04:51:19;0.80;;;0.53;;
19036;SDS011;9651;49.138;8.900;2023-11-19T04:55:22;0.97;;;0.50;;
19036;SDS011;9651;49.138;8.900;2023-11-19T04:59:24;2.10;;;0.43;;
19036;SDS011;9651;49.138;8.900;2023-11-19T05:03:27;1.87;;;0.70;;
19036;SDS011;9651;49.138;8.900;2023-11-19T05:07:29;2.33;;;0.70;;
19036;SDS011;9651;49.138;8.900;2023-11-19T05:11:32;0.70;;;0.70;;
19036;SDS011;9651;49.138;8.900;2023-11-19T05:15:34;0.90;;;0.63;;
19036;SDS011;9651;49.138;8.900;2023-11-19T05:19:36;0.90;;;0.60;;
19036;SDS011;9651;49.138;8.900;2023-11-19T05:23:38;1.87;;;0.60;;
19036;SDS011;9651;49.138;8.900;2023-11-19T05:27:43;0.70;;;0.70;;
19036;SDS011;9651;49.138;8.900;2023-11-19T05:31:45;1.27;;;1.00;;
19036;SDS011;9651;49.138;8.900;2023-11-19T05:35:47;2.70;;;0.70;;
19036;SDS011;9651;49.138;8.900;2023-11-19T05:39:49;0.70;;;0.70;;
19036;SDS011;9651;49.138;8.900;2023-11-19T05:43:52;0.63;;;0.60;;
19036;SDS011;9651;49.138;8.900;2023-11-19T05:47:55;0.70;;;0.60;;
19036;SDS011;9651;49.138;8.900;2023-11-19T05:51:57;0.60;;;0.60;;
19036;SDS011;9651;49.138;8.900;2023-11-19T05:55:59;0.90;;;0.73;;
19036;SDS011;9651;49.138;8.900;2023-11-19T06:00:06;1.50;;;0.73;;
19036;SDS011;9651;49.138;8.900;2023-11-19T06:04:13;0.87;;;0.53;;
19036;SDS011;9651;49.138;8.900;2023-11-19T06:08:16;2.50;;;0.77;;
19036;SDS011;9651;49.138;8.900;2023-11-19T06:12:18;0.50;;;0.50;;
19036;SDS011;9651;49.138;8.900;2023-11-19T06:16:21;1.03;;;0.50;;
19036;SDS011;9651;49.138;8.900;2023-11-19T06:20:23;1.00;;;0.63;;
19036;SDS011;9651;49.138;8.900;2023-11-19T06:24:25;1.80;;;0.40;;
19036;SDS011;9651;49.138;8.900;2023-11-19T06:28:27;0.40;;;0.40;;
19036;SDS011;9651;49.138;8.900;2023-11-19T06:32:30;0.90;;;0.50;;
19036;SDS011;9651;49.138;8.900;2023-11-19T06:36:32;0.63;;;0.40;;
19036;SDS011;9651;49.138;8.900;2023-11-19T06:40:35;1.70;;;0.57;;
19036;SDS011;9651;49.138;8.900;2023-11-19T06:44:37;0.90;;;0.40;;
19036;SDS011;9651;49.138;8.900;2023-11-19T06:48:40;1.53;;;0.40;;
19036;SDS011;9651;49.138;8.900;2023-11-19T06:52:44;0.43;;;0.43;;
19036;SDS011;9651;49.138;8.900;2023-11-19T06:56:46;0.57;;;0.50;;
19036;SDS011;9651;49.138;8.900;2023-11-19T07:00:48;0.20;;;0.20;;
19036;SDS011;9651;49.138;8.900;2023-11-19T07:04:52;0.20;;;0.20;;
19036;SDS011;9651;49.138;8.900;2023-11-19T07:08:54;0.23;;;0.23;;
19036;SDS011;9651;49.138;8.900;2023-11-19T07:12:56;0.93;;;0.27;;
19036;SDS011;9651;49.138;8.900;2023-11-19T07:16:59;3.00;;;0.40;;
19036;SDS011;9651;49.138;8.900;2023-11-19T07:21:03;0.47;;;0.20;;
19036;SDS011;9651;49.138;8.900;2023-11-19T07:25:06;0.80;;;0.40;;
19036;SDS011;9651;49.138;8.900;2023-11-19T07:29:08;0.93;;;0.40;;
19036;SDS011;9651;49.138;8.900;2023-11-19T07:33:10;0.37;;;0.37;;
19036;SDS011;9651;49.138;8.900;2023-11-19T07:37:15;1.03;;;0.50;;
19036;SDS011;9651;49.138;8.900;2023-11-19T07:41:17;2.37;;;0.50;;
19036;SDS011;9651;49.138;8.900;2023-11-19T07:45:20;2.00;;;0.50;;
19036;SDS011;9651;49.138;8.900;2023-11-19T07:49:21;2.10;;;1.90;;
19036;SDS011;9651;49.138;8.900;2023-11-19T07:53:25;1.73;;;1.60;;
19036;SDS011;9651;49.138;8.900;2023-11-19T07:57:26;1.50;;;1.40;;
19036;SDS011;9651;49.138;8.900;2023-11-19T08:01:31;1.13;;;0.90;;
19036;SDS011;9651;49.138;8.900;2023-11-19T08:05:32;2.57;;;1.27;;
19036;SDS011;9651;49.138;8.900;2023-11-19T08:09:36;0.57;;;0.40;;
19036;SDS011;9651;49.138;8.900;2023-11-19T08:13:38;1.13;;;0.40;;
19036;SDS011;9651;49.138;8.900;2023-11-19T08:17:40;0.77;;;0.50;;
19036;SDS011;9651;49.138;8.900;2023-11-19T08:21:42;1.33;;;0.40;;
19036;SDS011;9651;49.138;8.900;2023-11-19T08:25:45;0.40;;;0.40;;
19036;SDS011;9651;49.138;8.900;2023-11-19T08:29:47;0.83;;;0.73;;
19036;SDS011;9651;49.138;8.900;2023-11-19T08:33:49;0.80;;;0.70;;
19036;SDS011;9651;49.138;8.900;2023-11-19T08:37:51;0.50;;;0.50;;
19036;SDS011;9651;49.138;8.900;2023-11-19T08:41:55;0.60;;;0.40;;
19036;SDS011;9651;49.138;8.900;2023-11-19T08:45:57;0.50;;;0.50;;
19036;SDS011;9651;49.138;8.900;2023-11-19T08:49:59;1.47;;;1.23;;
19036;SDS011;9651;49.138;8.900;2023-11-19T08:54:01;0.70;;;0.70;;
19036;SDS011;9651;49.138;8.900;2023-11-19T08:58:04;0.83;;;0.50;;
19036;SDS011;9651;49.138;8.900;2023-11-19T09:02:06;0.30;;;0.30;;
19036;SDS011;9651;49.138;8.900;2023-11-19T09:06:09;3.03;;;0.60;;
19036;SDS011;9651;49.138;8.900;2023-11-19T09:10:11;0.80;;;0.40;;
19036;SDS011;9651;49.138;8.900;2023-11-19T09:14:14;1.80;;;0.63;;
19036;SDS011;9651;49.138;8.900;2023-11-19T09:18:18;0.20;;;0.20;;
19036;SDS011;9651;49.138;8.900;2023-11-19T09:22:20;1.13;;;0.50;;
19036;SDS011;9651;49.138;8.900;2023-11-19T09:26:22;0.30;;;0.30;;
19036;SDS011;9651;49.138;8.900;2023-11-19T09:30:26;0.90;;;0.33;;
19036;SDS011;9651;49.138;8.900;2023-11-19T09:34:28;4.20;;;1.33;;
19036;SDS011;9651;49.138;8.900;2023-11-19T09:38:30;1.70;;;0.47;;
19036;SDS011;9651;49.138;8.900;2023-11-19T09:42:32;1.27;;;0.30;;
19036;SDS011;9651;49.138;8.900;2023-11-19T09:46:44;1.03;;;0.50;;
19036;SDS011;9651;49.138;8.900;2023-11-19T09:50:47;1.10;;;0.50;;
19036;SDS011;9651;49.138;8.900;2023-11-19T09:54:49;1.23;;;0.53;;
19036;SDS011;9651;49.138;8.900;2023-11-19T09:58:51;2.00;;;1.80;;
19036;SDS011;9651;49.138;8.900;2023-11-19T10:02:55;1.20;;;1.10;;
19036;SDS011;9651;49.138;8.900;2023-11-19T10:06:58;0.90;;;0.70;;
19036;SDS011;9651;49.138;8.900;2023-11-19T10:11:00;2.67;;;1.40;;
19036;SDS011;9651;49.138;8.900;2023-11-19T10:15:02;2.60;;;1.45;;
19036;SDS011;9651;49.138;8.900;2023-11-19T10:19:06;0.73;;;0.70;;
19036;SDS011;9651;49.138;8.900;2023-11-19T10:23:09;2.33;;;1.87;;
19036;SDS011;9651;49.138;8.900;2023-11-19T10:27:12;1.42;;;0.90;;
19036;SDS011;9651;49.138;8.900;2023-11-19T10:31:15;1.08;;;0.60;;
19036;SDS011;9651;49.138;8.900;2023-11-19T10:35:19;1.50;;;1.38;;
19036;SDS011;9651;49.138;8.900;2023-11-19T10:39:21;1.30;;;0.75;;
19036;SDS011;9651;49.138;8.900;2023-11-19T10:43:24;2.47;;;0.95;;
19036;SDS011;9651;49.138;8.900;2023-11-19T10:47:27;0.80;;;0.63;;
19036;SDS011;9651;49.138;8.900;2023-11-19T10:51:32;0.80;;;0.63;;
19036;SDS011;9651;49.138;8.900;2023-11-19T10:55:34;3.90;;;0.98;;
19036;SDS011;9651;49.138;8.900;2023-11-19T10:59:38;1.80;;;0.52;;
19036;SDS011;9651;49.138;8.900;2023-11-19T11:03:41;1.88;;;0.60;;
19036;SDS011;9651;49.138;8.900;2023-11-19T11:07:47;1.20;;;0.65;;
19036;SDS011;9651;49.138;8.900;2023-11-19T11:11:53;2.42;;;1.10;;
19036;SDS011;9651;49.138;8.900;2023-11-19T11:15:57;3.95;;;0.60;;
19036;SDS011;9651;49.138;8.900;2023-11-19T11:19:59;6.05;;;0.65;;
19036;SDS011;9651;49.138;8.900;2023-11-19T11:24:13;6.75;;;1.00;;
19036;SDS011;9651;49.138;8.900;2023-11-19T11:28:28;0.73;;;0.50;;
19036;SDS011;9651;49.138;8.900;2023-11-19T11:32:37;1.95;;;0.85;;
19036;SDS011;9651;49.138;8.900;2023-11-19T11:36:47;3.85;;;0.90;;
19036;SDS011;9651;49.138;8.900;2023-11-19T11:45:34;3.08;;;0.68;;
19036;SDS011;9651;49.138;8.900;2023-11-19T11:49:37;2.75;;;0.93;;
19036;SDS011;9651;49.138;8.900;2023-11-19T11:53:41;1.03;;;0.80;;
19036;SDS011;9651;49.138;8.900;2023-11-19T11:57:44;1.77;;;0.60;;
19036;SDS011;9651;49.138;8.900;2023-11-19T12:01:57;1.93;;;0.83;;
19036;SDS011;9651;49.138;8.900;2023-11-19T12:05:59;1.90;;;0.73;;
19036;SDS011;9651;49.138;8.900;2023-11-19T12:10:05;1.47;;;0.60;;
19036;SDS011;9651;49.138;8.900;2023-11-19T12:14:10;2.10;;;0.93;;
19036;SDS011;9651;49.138;8.900;2023-11-19T12:18:12;1.87;;;1.03;;
19036;SDS011;9651;49.138;8.900;2023-11-19T12:22:20;1.53;;;0.63;;
19036;SDS011;9651;49.138;8.900;2023-11-19T12:26:32;1.13;;;0.60;;
19036;SDS011;9651;49.138;8.900;2023-11-19T12:30:36;1.13;;;0.73;;
19036;SDS011;9651;49.138;8.900;2023-11-19T12:34:38;2.03;;;0.97;;
19036;SDS011;9651;49.138;8.900;2023-11-19T12:38:40;1.63;;;1.20;;
19036;SDS011;9651;49.138;8.900;2023-11-19T12:42:45;1.43;;;0.90;;
19036;SDS011;9651;49.138;8.900;2023-11-19T12:47:02;2.33;;;0.90;;
19036;SDS011;9651;49.138;8.900;2023-11-19T12:51:06;2.77;;;0.90;;
19036;SDS011;9651;49.138;8.900;2023-11-19T12:59:29;3.83;;;0.83;;
19036;SDS011;9651;49.138;8.900;2023-11-19T13:03:33;2.07;;;0.70;;
19036;SDS011;9651;49.138;8.900;2023-11-19T13:07:35;1.00;;;0.70;;
19036;SDS011;9651;49.138;8.900;2023-11-19T13:11:37;2.10;;;0.70;;
19036;SDS011;9651;49.138;8.900;2023-11-19T13:15:41;1.60;;;0.93;;
19036;SDS011;9651;49.138;8.900;2023-11-19T13:19:44;1.10;;;0.63;;
19036;SDS011;9651;49.138;8.900;2023-11-19T13:23:48;2.30;;;0.70;;
19036;SDS011;9651;49.138;8.900;2023-11-19T13:27:50;2.40;;;1.40;;
19036;SDS011;9651;49.138;8.900;2023-11-19T13:31:52;2.00;;;0.80;;
19036;SDS011;9651;49.138;8.900;2023-11-19T13:35:56;1.50;;;0.80;;
19036;SDS011;9651;49.138;8.900;2023-11-19T13:39:58;4.87;;;1.40;;
19036;SDS011;9651;49.138;8.900;2023-11-19T13:43:59;1.37;;;1.10;;
19036;SDS011;9651;49.138;8.900;2023-11-19T13:48:01;3.13;;;0.80;;
19036;SDS011;9651;49.138;8.900;2023-11-19T13:52:05;1.43;;;0.80;;
19036;SDS011;9651;49.138;8.900;2023-11-19T13:56:07;2.23;;;0.97;;
19036;SDS011;9651;49.138;8.900;2023-11-19T14:00:10;1.10;;;0.87;;
19036;SDS011;9651;49.138;8.900;2023-11-19T14:04:13;2.43;;;1.00;;
19036;SDS011;9651;49.138;8.900;2023-11-19T14:08:16;1.63;;;0.80;;
19036;SDS011;9651;49.138;8.900;2023-11-19T14:12:18;4.27;;;0.90;;
19036;SDS011;9651;49.138;8.900;2023-11-19T14:16:20;2.23;;;1.00;;
19036;SDS011;9651;49.138;8.900;2023-11-19T14:20:22;2.70;;;0.80;;
19036;SDS011;9651;49.138;8.900;2023-11-19T14:24:27;4.13;;;0.87;;
19036;SDS011;9651;49.138;8.900;2023-11-19T14:28:28;7.20;;;0.80;;
19036;SDS011;9651;49.138;8.900;2023-11-19T14:32:31;1.20;;;0.70;;
19036;SDS011;9651;49.138;8.900;2023-11-19T14:36:33;2.53;;;0.60;;
19036;SDS011;9651;49.138;8.900;2023-11-19T14:40:36;3.70;;;0.57;;
19036;SDS011;9651;49.138;8.900;2023-11-19T14:44:38;1.37;;;0.60;;
19036;SDS011;9651;49.138;8.900;2023-11-19T14:48:40;2.43;;;0.80;;
19036;SDS011;9651;49.138;8.900;2023-11-19T14:52:42;4.30;;;1.27;;
19036;SDS011;9651;49.138;8.900;2023-11-19T14:56:45;1.00;;;0.80;;
19036;SDS011;9651;49.138;8.900;2023-11-19T15:00:47;2.17;;;1.03;;
19036;SDS011;9651;49.138;8.900;2023-11-19T15:04:49;2.17;;;0.80;;
19036;SDS011;9651;49.138;8.900;2023-11-19T15:08:51;1.43;;;0.70;;
19036;SDS011;9651;49.138;8.900;2023-11-19T15:12:54;1.60;;;0.80;;
19036;SDS011;9651;49.138;8.900;2023-11-19T15:16:56;1.63;;;0.70;;
19036;SDS011;9651;49.138;8.900;2023-11-19T15:20:58;2.73;;;0.90;;
19036;SDS011;9651;49.138;8.900;2023-11-19T15:25:00;1.43;;;0.70;;
19036;SDS011;9651;49.138;8.900;2023-11-19T15:29:04;4.37;;;1.27;;
19036;SDS011;9651;49.138;8.900;2023-11-19T15:33:06;1.50;;;0.60;;
19036;SDS011;9651;49.138;8.900;2023-11-19T15:37:09;2.40;;;0.93;;
19036;SDS011;9651;49.138;8.900;2023-11-19T15:41:13;1.17;;;0.70;;
19036;SDS011;9651;49.138;8.900;2023-11-19T15:45:16;1.23;;;0.70;;
19036;SDS011;9651;49.138;8.900;2023-11-19T15:49:18;1.43;;;0.60;;
19036;SDS011;9651;49.138;8.900;2023-11-19T15:53:20;2.67;;;0.93;;
19036;SDS011;9651;49.138;8.900;2023-11-19T15:57:22;0.83;;;0.77;;
19036;SDS011;9651;49.138;8.900;2023-11-19T16:01:25;1.73;;;0.83;;
19036;SDS011;9651;49.138;8.900;2023-11-19T16:05:30;1.90;;;0.80;;
19036;SDS011;9651;49.138;8.900;2023-11-19T16:09:32;4.67;;;0.87;;
19036;SDS011;9651;49.138;8.900;2023-11-19T16:13:34;2.23;;;0.87;;
19036;SDS011;9651;49.138;8.900;2023-11-19T16:17:37;1.73;;;0.90;;
19036;SDS011;9651;49.138;8.900;2023-11-19T16:21:39;3.57;;;1.40;;
19036;SDS011;9651;49.138;8.900;2023-11-19T16:25:41;0.93;;;0.60;;
19036;SDS011;9651;49.138;8.900;2023-11-19T16:29:43;4.13;;;2.10;;
19036;SDS011;9651;49.138;8.900;2023-11-19T16:33:47;1.70;;;0.50;;
19036;SDS011;9651;49.138;8.900;2023-11-19T16:37:49;2.63;;;1.03;;
19036;SDS011;9651;49.138;8.900;2023-11-19T16:41:51;2.70;;;0.90;;
19036;SDS011;9651;49.138;8.900;2023-11-19T16:45:53;3.07;;;0.90;;
19036;SDS011;9651;49.138;8.900;2023-11-19T16:49:56;1.90;;;0.70;;
19036;SDS011;9651;49.138;8.900;2023-11-19T16:53:58;1.40;;;0.80;;
19036;SDS011;9651;49.138;8.900;2023-11-19T16:58:01;6.10;;;1.30;;
19036;SDS011;9651;49.138;8.900;2023-11-19T17:02:03;4.47;;;1.80;;
19036;SDS011;9651;49.138;8.900;2023-11-19T17:06:07;5.50;;;2.00;;
19036;SDS011;9651;49.138;8.900;2023-11-19T17:10:10;1.67;;;0.93;;
19036;SDS011;9651;49.138;8.900;2023-11-19T17:14:12;2.00;;;1.10;;
19036;SDS011;9651;49.138;8.900;2023-11-19T17:18:14;1.10;;;0.97;;
19036;SDS011;9651;49.138;8.900;2023-11-19T17:22:18;2.33;;;0.80;;
19036;SDS011;9651;49.138;8.900;2023-11-19T17:26:20;6.40;;;1.97;;
19036;SDS011;9651;49.138;8.900;2023-11-19T17:30:22;1.53;;;0.90;;
19036;SDS011;9651;49.138;8.900;2023-11-19T17:34:24;1.03;;;0.77;;
19036;SDS011;9651;49.138;8.900;2023-11-19T17:38:27;2.77;;;1.00;;
19036;SDS011;9651;49.138;8.900;2023-11-19T17:42:29;2.67;;;0.90;;
19036;SDS011;9651;49.138;8.900;2023-11-19T17:46:31;2.70;;;0.90;;
19036;SDS011;9651;49.138;8.900;2023-11-19T17:50:33;3.23;;;0.90;;
19036;SDS011;9651;49.138;8.900;2023-11-19T17:54:36;5.03;;;1.80;;
19036;SDS011;9651;49.138;8.900;2023-11-19T17:58:39;7.17;;;1.20;;
19036;SDS011;9651;49.138;8.900;2023-11-19T18:02:41;4.53;;;1.40;;
19036;SDS011;9651;49.138;8.900;2023-11-19T18:06:45;2.33;;;1.30;;
19036;SDS011;9651;49.138;8.900;2023-11-19T18:10:48;6.73;;;1.33;;
19036;SDS011;9651;49.138;8.900;2023-11-19T18:14:51;4.43;;;1.90;;
19036;SDS011;9651;49.138;8.900;2023-11-19T18:18:53;8.63;;;1.73;;
19036;SDS011;9651;49.138;8.900;2023-11-19T18:22:55;2.53;;;0.90;;
19036;SDS011;9651;49.138;8.900;2023-11-19T18:27:02;3.43;;;1.33;;
19036;SDS011;9651;49.138;8.900;2023-11-19T18:31:04;4.87;;;1.53;;
19036;SDS011;9651;49.138;8.900;2023-11-19T18:35:07;4.13;;;1.10;;
19036;SDS011;9651;49.138;8.900;2023-11-19T18:39:11;2.80;;;1.17;;
19036;SDS011;9651;49.138;8.900;2023-11-19T18:43:15;3.93;;;1.07;;
19036;SDS011;9651;49.138;8.900;2023-11-19T18:47:17;6.17;;;2.10;;
19036;SDS011;9651;49.138;8.900;2023-11-19T18:51:19;7.20;;;1.70;;
19036;SDS011;9651;49.138;8.900;2023-11-19T18:55:20;4.60;;;1.87;;
19036;SDS011;9651;49.138;8.900;2023-11-19T18:59:24;5.53;;;1.80;;
19036;SDS011;9651;49.138;8.900;2023-11-19T19:03:26;4.83;;;1.53;;
19036;SDS011;9651;49.138;8.900;2023-11-19T19:07:31;5.87;;;1.30;;
19036;SDS011;9651;49.138;8.900;2023-11-19T19:11:33;5.67;;;1.63;;
19036;SDS011;9651;49.138;8.900;2023-11-19T19:15:37;7.43;;;2.07;;
19036;SDS011;9651;49.138;8.900;2023-11-19T19:19:38;6.20;;;1.73;;
19036;SDS011;9651;49.138;8.900;2023-11-19T19:23:40;9.20;;;1.70;;
19036;SDS011;9651;49.138;8.900;2023-11-19T19:27:43;6.93;;;1.70;;
19036;SDS011;9651;49.138;8.900;2023-11-19T19:31:46;8.03;;;1.70;;
19036;SDS011;9651;49.138;8.900;2023-11-19T19:35:49;6.73;;;1.60;;
19036;SDS011;9651;49.138;8.900;2023-11-19T19:39:51;8.07;;;2.13;;
19036;SDS011;9651;49.138;8.900;2023-11-19T19:43:53;5.00;;;2.50;;
19036;SDS011;9651;49.138;8.900;2023-11-19T19:47:57;10.20;;;3.50;;
19036;SDS011;9651;49.138;8.900;2023-11-19T19:51:58;4.47;;;1.83;;
19036;SDS011;9651;49.138;8.900;2023-11-19T19:56:00;9.83;;;1.67;;
19036;SDS011;9651;49.138;8.900;2023-11-19T20:00:03;5.37;;;1.47;;
19036;SDS011;9651;49.138;8.900;2023-11-19T20:04:12;2.50;;;1.10;;
19036;SDS011;9651;49.138;8.900;2023-11-19T20:08:14;6.40;;;1.33;;
19036;SDS011;9651;49.138;8.900;2023-11-19T20:12:15;7.80;;;1.60;;
19036;SDS011;9651;49.138;8.900;2023-11-19T20:16:17;10.37;;;3.63;;
19036;SDS011;9651;49.138;8.900;2023-11-19T20:20:21;7.33;;;2.73;;
19036;SDS011;9651;49.138;8.900;2023-11-19T20:24:22;6.00;;;2.30;;
19036;SDS011;9651;49.138;8.900;2023-11-19T20:28:24;8.23;;;1.77;;
19036;SDS011;9651;49.138;8.900;2023-11-19T20:32:26;7.87;;;1.70;;
19036;SDS011;9651;49.138;8.900;2023-11-19T20:36:29;9.20;;;2.40;;
19036;SDS011;9651;49.138;8.900;2023-11-19T20:40:31;8.07;;;1.97;;
19036;SDS011;9651;49.138;8.900;2023-11-19T20:44:33;5.93;;;1.60;;
19036;SDS011;9651;49.138;8.900;2023-11-19T20:48:35;12.00;;;2.23;;
19036;SDS011;9651;49.138;8.900;2023-11-19T20:52:38;8.03;;;1.53;;
19036;SDS011;9651;49.138;8.900;2023-11-19T20:56:40;11.03;;;3.00;;
19036;SDS011;9651;49.138;8.900;2023-11-19T21:00:42;10.30;;;2.07;;
19036;SDS011;9651;49.138;8.900;2023-11-19T21:04:46;9.40;;;2.50;;
19036;SDS011;9651;49.138;8.900;2023-11-19T21:08:49;6.30;;;2.40;;
19036;SDS011;9651;49.138;8.900;2023-11-19T21:12:52;10.77;;;2.40;;
19036;SDS011;9651;49.138;8.900;2023-11-19T21:16:53;9.33;;;2.17;;
19036;SDS011;9651;49.138;8.900;2023-11-19T21:20:55;9.57;;;1.70;;
19036;SDS011;9651;49.138;8.900;2023-11-19T21:24:59;8.80;;;1.83;;
19036;SDS011;9651;49.138;8.900;2023-11-19T21:29:01;8.63;;;3.03;;
19036;SDS011;9651;49.138;8.900;2023-11-19T21:33:03;6.40;;;1.50;;
19036;SDS011;9651;49.138;8.900;2023-11-19T21:37:05;9.90;;;1.93;;
19036;SDS011;9651;49.138;8.900;2023-11-19T21:41:10;12.70;;;2.07;;
19036;SDS011;9651;49.138;8.900;2023-11-19T21:45:14;9.40;;;1.90;;
19036;SDS011;9651;49.138;8.900;2023-11-19T21:49:16;11.43;;;1.60;;
19036;SDS011;9651;49.138;8.900;2023-11-19T21:53:20;10.07;;;1.60;;
19036;SDS011;9651;49.138;8.900;2023-11-19T21:57:23;17.00;;;2.93;;
19036;SDS011;9651;49.138;8.900;2023-11-19T22:01:25;8.43;;;2.00;;
19036;SDS011;9651;49.138;8.900;2023-11-19T22:05:28;16.70;;;2.33;;
19036;SDS011;9651;49.138;8.900;2023-11-19T22:09:30;10.63;;;2.40;;
19036;SDS011;9651;49.138;8.900;2023-11-19T22:13:33;10.20;;;2.20;;
19036;SDS011;9651;49.138;8.900;2023-11-19T22:17:38;9.60;;;1.80;;
19036;SDS011;9651;49.138;8.900;2023-11-19T22:21:39;11.70;;;1.73;;
19036;SDS011;9651;49.138;8.900;2023-11-19T22:25:41;8.17;;;1.47;;
19036;SDS011;9651;49.138;8.900;2023-11-19T22:29:45;12.07;;;2.10;;
19036;SDS011;9651;49.138;8.900;2023-11-19T22:33:47;10.33;;;1.63;;
19036;SDS011;9651;49.138;8.900;2023-11-19T22:37:50;7.03;;;1.50;;
19036;SDS011;9651;49.138;8.900;2023-11-19T22:41:51;14.67;;;2.97;;
19036;SDS011;9651;49.138;8.900;2023-11-19T22:45:54;12.53;;;2.20;;
19036;SDS011;9651;49.138;8.900;2023-11-19T22:49:56;14.80;;;2.10;;
19036;SDS011;9651;49.138;8.900;2023-11-19T22:53:58;9.83;;;1.80;;
19036;SDS011;9651;49.138;8.900;2023-11-19T22:58:00;7.03;;;2.13;;
19036;SDS011;9651;49.138;8.900;2023-11-19T23:02:04;9.23;;;2.27;;
19036;SDS011;9651;49.138;8.900;2023-11-19T23:06:07;13.70;;;2.30;;
19036;SDS011;9651;49.138;8.900;2023-11-19T23:10:09;14.53;;;2.73;;
19036;SDS011;9651;49.138;8.900;2023-11-19T23:14:11;8.97;;;2.17;;
19036;SDS011;9651;49.138;8.900;2023-11-19T23:18:14;16.07;;;3.00;;
19036;SDS011;9651;49.138;8.900;2023-11-19T23:22:16;12.03;;;2.17;;
19036;SDS011;9651;49.138;8.900;2023-11-19T23:26:18;8.87;;;2.23;;
19036;SDS011;9651;49.138;8.900;2023-11-19T23:30:21;12.77;;;1.77;;
19036;SDS011;9651;49.138;8.900;2023-11-19T23:34:24;7.57;;;2.00;;
19036;SDS011;9651;49.138;8.900;2023-11-19T23:38:26;10.03;;;1.80;;
19036;SDS011;9651;49.138;8.900;2023-11-19T23:42:29;10.27;;;1.63;;
19036;SDS011;9651;49.138;8.900;2023-11-19T23:46:30;15.57;;;3.10;;
19036;SDS011;9651;49.138;8.900;2023-11-19T23:50:34;9.33;;;2.30;;
19036;SDS011;9651;49.138;8.900;2023-11-19T23:54:37;12.93;;;2.57;;
19036;SDS011;9651;49.138;8.900;2023-11-19T23:58:38;16.20;;;2.73;;
